Time;durP1;ratioP1;P1;durP2;ratioP2;P2;SDS_P1;SDS_P2;PMS_P1;PMS_P2;Temp;Humidity;BMP_temperature;BMP_pressure;BME280_temperature;BME280_humidity;BME280_pressure;Samples;Min_cycle;Max_cycle;Signal;HPM_P1;HPM_P2
2021/09/04 00:00:35;;;;;;;12.98;8.40;;;12.00;86.80;;;;;;4939468;28;20115;-80
2021/09/04 00:03:00;;;;;;;10.55;7.63;;;11.90;87.30;;;;;;4926767;29;20498;-80
2021/09/04 00:05:28;;;;;;;11.32;7.03;;;11.90;87.50;;;;;;4936503;29;20053;-80
2021/09/04 00:07:54;;;;;;;12.32;7.57;;;11.90;87.60;;;;;;4937996;29;20034;-80
2021/09/04 00:10:20;;;;;;;9.30;6.97;;;11.80;87.10;;;;;;4933288;29;20027;-80
2021/09/04 00:12:45;;;;;;;8.43;6.32;;;11.70;87.20;;;;;;4935467;29;20044;-80
2021/09/04 00:15:11;;;;;;;7.93;6.10;;;11.60;87.30;;;;;;4932326;29;20546;-79
2021/09/04 00:17:37;;;;;;;7.30;5.40;;;11.60;87.30;;;;;;4938322;29;20074;-80
2021/09/04 00:20:03;;;;;;;5.10;4.45;;;11.60;86.80;;;;;;4937756;29;20027;-81
2021/09/04 00:22:29;;;;;;;5.15;4.32;;;11.50;86.50;;;;;;4940696;29;20035;-81
2021/09/04 00:24:55;;;;;;;5.22;4.55;;;11.40;86.40;;;;;;4937523;28;20028;-80
2021/09/04 00:27:20;;;;;;;4.60;3.67;;;11.40;87.10;;;;;;4936321;29;20039;-81
2021/09/04 00:29:46;;;;;;;5.13;3.53;;;11.30;87.40;;;;;;4938401;29;20445;-80
2021/09/04 00:32:12;;;;;;;4.78;3.80;;;11.30;87.40;;;;;;4949510;28;20393;-80
2021/09/04 00:34:38;;;;;;;6.35;4.07;;;11.30;87.50;;;;;;4936626;29;20035;-80
2021/09/04 00:37:04;;;;;;;8.57;4.70;;;11.40;87.10;;;;;;4937994;28;20028;-80
2021/09/04 00:39:30;;;;;;;5.55;4.00;;;11.40;87.00;;;;;;4938018;29;20513;-80
2021/09/04 00:41:56;;;;;;;5.28;4.28;;;11.30;87.10;;;;;;4938257;29;20090;-79
2021/09/04 00:44:22;;;;;;;6.38;3.50;;;11.30;88.50;;;;;;4936590;29;20500;-80
2021/09/04 00:46:48;;;;;;;4.75;3.78;;;11.30;88.50;;;;;;4938171;29;20024;-79
2021/09/04 00:49:15;;;;;;;4.75;3.50;;;11.20;88.80;;;;;;4936927;29;20035;-80
2021/09/04 00:51:41;;;;;;;6.00;3.80;;;11.20;89.40;;;;;;4936533;28;20114;-80
2021/09/04 00:54:07;;;;;;;3.65;3.10;;;11.10;89.10;;;;;;4936208;29;20055;-80
2021/09/04 00:56:37;;;;;;;3.13;2.67;;;11.10;88.90;;;;;;4936760;28;20099;-80
2021/09/04 00:59:06;;;;;;;3.50;2.10;;;11.00;89.00;;;;;;4936600;28;20027;-81
2021/09/04 01:01:32;;;;;;;2.17;1.92;;;10.90;88.70;;;;;;4933117;29;20099;-80
2021/09/04 01:03:58;;;;;;;2.45;2.25;;;10.90;88.10;;;;;;4934053;28;20027;-79
2021/09/04 01:06:24;;;;;;;3.63;2.10;;;10.80;87.70;;;;;;4937498;28;20020;-80
2021/09/04 01:08:49;;;;;;;2.58;2.38;;;10.80;87.50;;;;;;4928970;29;20020;-80
2021/09/04 01:11:16;;;;;;;2.10;1.90;;;10.80;87.40;;;;;;4932797;29;20032;-80
2021/09/04 01:13:42;;;;;;;4.65;2.55;;;10.80;87.30;;;;;;4932651;29;20028;-81
2021/09/04 01:16:08;;;;;;;3.85;2.65;;;10.80;87.80;;;;;;4946768;28;20038;-80
2021/09/04 01:18:34;;;;;;;4.20;2.75;;;10.80;88.00;;;;;;4940351;28;20040;-80
2021/09/04 01:21:02;;;;;;;6.13;2.95;;;10.80;88.90;;;;;;4935803;28;20035;-80
2021/09/04 01:23:27;;;;;;;3.72;2.90;;;10.90;89.40;;;;;;4929586;29;20048;-81
2021/09/04 01:25:54;;;;;;;3.90;3.08;;;10.80;88.20;;;;;;4928716;28;20048;-80
2021/09/04 01:28:21;;;;;;;3.80;2.67;;;10.90;88.20;;;;;;4937570;28;20381;-80
2021/09/04 01:30:47;;;;;;;3.70;2.83;;;10.80;88.10;;;;;;4931372;29;20067;-80
2021/09/04 01:33:13;;;;;;;4.82;3.38;;;10.80;88.60;;;;;;4933339;29;20429;-80
2021/09/04 01:35:39;;;;;;;2.85;2.47;;;10.70;88.90;;;;;;4935931;29;20028;-79
2021/09/04 01:38:05;;;;;;;3.03;2.60;;;10.70;88.80;;;;;;4935064;29;20031;-80
2021/09/04 01:40:31;;;;;;;2.63;2.42;;;10.70;89.20;;;;;;4931311;28;20023;-81
2021/09/04 01:42:57;;;;;;;3.85;2.05;;;10.60;89.80;;;;;;4930436;29;20050;-80
2021/09/04 01:45:23;;;;;;;2.05;1.85;;;10.60;89.60;;;;;;4934270;28;20023;-80
2021/09/04 01:47:48;;;;;;;4.35;2.40;;;10.70;89.30;;;;;;4933067;29;20386;-80
2021/09/04 01:50:15;;;;;;;3.13;2.80;;;10.70;89.20;;;;;;4937162;29;20027;-80
2021/09/04 01:52:45;;;;;;;3.92;2.78;;;10.70;88.80;;;;;;4935088;29;20032;-80
2021/09/04 01:55:18;;;;;;;4.85;2.78;;;10.70;89.40;;;;;;4927570;29;20019;-81
2021/09/04 01:57:44;;;;;;;3.50;3.10;;;10.50;90.20;;;;;;4923042;29;20054;-81
2021/09/04 02:00:12;;;;;;;4.00;2.70;;;10.50;90.10;;;;;;4935117;29;20016;-81
2021/09/04 02:02:38;;;;;;;4.70;3.10;;;10.60;89.50;;;;;;4934292;29;20135;-81
2021/09/04 02:05:05;;;;;;;3.60;2.97;;;10.50;89.50;;;;;;4932837;29;20028;-81
2021/09/04 02:07:31;;;;;;;4.78;3.55;;;10.60;89.20;;;;;;4950414;28;20024;-81
2021/09/04 02:09:57;;;;;;;4.93;3.42;;;10.50;88.70;;;;;;4932580;28;20389;-81
2021/09/04 02:12:23;;;;;;;3.85;3.30;;;10.50;89.10;;;;;;4933876;28;20035;-81
2021/09/04 02:14:48;;;;;;;4.57;2.60;;;10.50;88.30;;;;;;4935227;29;20059;-81
2021/09/04 02:17:14;;;;;;;3.58;2.70;;;10.50;87.80;;;;;;4935709;29;20079;-81
2021/09/04 02:19:40;;;;;;;4.72;2.15;;;10.40;87.70;;;;;;4928022;29;20024;-81
2021/09/04 02:22:05;;;;;;;1.90;1.70;;;10.40;87.10;;;;;;4930906;29;20031;-81
2021/09/04 02:24:31;;;;;;;1.83;1.73;;;10.30;87.50;;;;;;4925573;28;20075;-81
2021/09/04 02:26:58;;;;;;;3.63;3.00;;;10.30;87.10;;;;;;4933031;29;20055;-81
2021/09/04 02:29:23;;;;;;;5.85;2.95;;;10.30;88.70;;;;;;4933536;29;20028;-81
2021/09/04 02:31:49;;;;;;;5.57;3.58;;;10.20;90.00;;;;;;4931560;28;20076;-81
2021/09/04 02:34:15;;;;;;;5.50;3.17;;;10.20;89.70;;;;;;4928449;29;20036;-81
2021/09/04 02:36:41;;;;;;;5.95;3.47;;;10.20;89.30;;;;;;4929769;28;20067;-80
2021/09/04 02:39:06;;;;;;;4.40;2.97;;;10.30;89.10;;;;;;4929065;28;20477;-80
2021/09/04 02:41:33;;;;;;;3.35;2.85;;;10.20;87.50;;;;;;4931707;28;20564;-81
2021/09/04 02:43:58;;;;;;;4.75;2.80;;;10.20;86.60;;;;;;4931791;28;20054;-81
2021/09/04 02:46:24;;;;;;;2.92;2.35;;;10.10;87.60;;;;;;4927763;28;20043;-80
2021/09/04 02:48:50;;;;;;;2.30;2.10;;;10.00;87.90;;;;;;4929397;28;20031;-81
2021/09/04 02:51:15;;;;;;;4.30;2.40;;;9.90;87.40;;;;;;4931490;28;20049;-79
2021/09/04 02:53:41;;;;;;;3.53;2.60;;;9.90;87.80;;;;;;4932187;29;20065;-80
2021/09/04 02:56:07;;;;;;;2.33;1.92;;;9.90;88.90;;;;;;4935563;29;20032;-80
2021/09/04 02:58:33;;;;;;;2.30;2.10;;;9.80;88.60;;;;;;4943386;28;20115;-79
2021/09/04 03:00:59;;;;;;;2.00;1.88;;;9.80;88.30;;;;;;4929689;28;20031;-80
2021/09/04 03:03:25;;;;;;;2.10;1.90;;;9.80;88.30;;;;;;4933098;29;20027;-80
2021/09/04 03:05:51;;;;;;;2.60;2.00;;;9.80;87.90;;;;;;4933307;29;20667;-81
2021/09/04 03:08:17;;;;;;;2.53;2.10;;;9.80;87.80;;;;;;4936541;29;20063;-80
2021/09/04 03:10:43;;;;;;;2.97;2.17;;;9.80;87.60;;;;;;4933920;28;20609;-80
2021/09/04 03:13:08;;;;;;;2.42;2.08;;;9.70;87.60;;;;;;4929530;29;20031;-80
2021/09/04 03:15:34;;;;;;;3.90;2.70;;;9.70;88.00;;;;;;4931970;29;20031;-80
2021/09/04 03:18:00;;;;;;;5.03;2.50;;;9.70;88.70;;;;;;4933791;28;20031;-80
2021/09/04 03:20:25;;;;;;;2.90;2.60;;;9.70;88.60;;;;;;4948796;28;20034;-80
2021/09/04 03:22:51;;;;;;;2.80;2.30;;;9.80;88.70;;;;;;4936067;28;20031;-81
2021/09/04 03:25:17;;;;;;;3.15;2.55;;;9.80;88.60;;;;;;4934513;29;20069;-80
2021/09/04 03:27:43;;;;;;;3.45;2.50;;;9.80;89.10;;;;;;4942885;28;20043;-81
2021/09/04 03:30:10;;;;;;;3.78;2.80;;;9.80;89.40;;;;;;4936530;29;20052;-81
2021/09/04 03:32:35;;;;;;;3.40;2.75;;;9.80;90.00;;;;;;4936647;28;20032;-81
2021/09/04 03:35:01;;;;;;;2.55;2.35;;;9.80;90.00;;;;;;4937363;28;20028;-81
2021/09/04 03:37:27;;;;;;;3.10;2.60;;;9.70;90.20;;;;;;4938723;29;20032;-81
2021/09/04 03:39:53;;;;;;;2.40;2.20;;;9.70;89.80;;;;;;4935591;28;20396;-81
2021/09/04 03:42:18;;;;;;;4.50;2.13;;;9.70;89.20;;;;;;4939196;29;20079;-81
2021/09/04 03:44:44;;;;;;;2.22;2.08;;;9.70;89.20;;;;;;4936554;29;20016;-81
2021/09/04 03:47:10;;;;;;;2.90;2.22;;;9.50;89.00;;;;;;4936870;29;20107;-82
2021/09/04 03:49:35;;;;;;;1.95;1.85;;;9.50;89.00;;;;;;4930957;29;20040;-81
2021/09/04 03:52:01;;;;;;;2.00;1.60;;;9.40;89.10;;;;;;4944444;28;20063;-81
2021/09/04 03:54:27;;;;;;;1.95;1.80;;;9.40;89.20;;;;;;4931686;29;20027;-82
2021/09/04 03:56:53;;;;;;;2.22;2.03;;;9.30;89.50;;;;;;4936792;29;20027;-81
2021/09/04 03:59:20;;;;;;;3.17;2.50;;;9.30;89.70;;;;;;4935593;29;20031;-81
2021/09/04 04:01:45;;;;;;;2.45;2.20;;;9.30;90.10;;;;;;4932652;29;20131;-81
2021/09/04 04:04:11;;;;;;;3.63;2.55;;;9.40;89.60;;;;;;4935806;29;20159;-81
2021/09/04 04:06:37;;;;;;;3.17;2.50;;;9.40;89.80;;;;;;4940652;29;20031;-81
2021/09/04 04:09:03;;;;;;;2.75;2.47;;;9.40;89.30;;;;;;4937583;29;20055;-81
2021/09/04 04:11:28;;;;;;;4.80;2.95;;;9.40;89.30;;;;;;4936628;28;20485;-81
2021/09/04 04:13:54;;;;;;;3.55;3.00;;;9.40;89.20;;;;;;4933467;29;20045;-82
2021/09/04 04:16:20;;;;;;;3.00;2.70;;;9.50;89.30;;;;;;4938667;29;20064;-81
2021/09/04 04:18:45;;;;;;;4.13;3.13;;;9.40;89.60;;;;;;4935790;28;20469;-81
2021/09/04 04:21:11;;;;;;;6.47;3.15;;;9.50;89.70;;;;;;4934646;28;20031;-81
2021/09/04 04:23:36;;;;;;;4.68;3.30;;;9.40;90.10;;;;;;4934270;28;20036;-81
2021/09/04 04:26:02;;;;;;;4.28;3.10;;;9.40;90.00;;;;;;4933502;29;20063;-82
2021/09/04 04:28:28;;;;;;;3.25;2.95;;;9.40;89.80;;;;;;4934433;28;20047;-81
2021/09/04 04:30:54;;;;;;;3.72;2.75;;;9.30;90.00;;;;;;4935478;29;20070;-82
2021/09/04 04:33:20;;;;;;;2.45;2.25;;;9.20;89.70;;;;;;4932895;29;20032;-82
2021/09/04 04:35:45;;;;;;;3.83;2.10;;;9.20;89.10;;;;;;4939383;29;20035;-81
2021/09/04 04:38:11;;;;;;;3.17;2.47;;;9.10;89.10;;;;;;4931636;29;20138;-82
2021/09/04 04:40:37;;;;;;;2.53;2.30;;;9.00;89.10;;;;;;4931378;29;20090;-81
2021/09/04 04:43:03;;;;;;;3.20;2.40;;;9.00;89.10;;;;;;4933400;28;20036;-81
2021/09/04 04:45:28;;;;;;;3.10;2.28;;;8.90;89.20;;;;;;4937861;28;20053;-82
2021/09/04 04:47:54;;;;;;;3.47;3.00;;;8.80;89.70;;;;;;4931116;29;20031;-82
2021/09/04 04:50:20;;;;;;;6.70;3.17;;;8.90;90.10;;;;;;4933354;29;20031;-81
2021/09/04 04:52:48;;;;;;;3.90;2.72;;;8.90;90.40;;;;;;4942493;28;22212;-81
2021/09/04 04:55:14;;;;;;;;;;;8.90;90.20;;;;;;4933018;29;20034;-81
2021/09/04 04:57:40;;;;;;;3.15;2.70;;;8.80;90.20;;;;;;4933380;28;19920;-81
2021/09/04 05:00:06;;;;;;;4.00;3.13;;;8.90;90.50;;;;;;4939612;28;20032;-82
2021/09/04 05:02:32;;;;;;;4.00;2.58;;;8.80;90.70;;;;;;4931098;28;20514;-81
2021/09/04 05:04:57;;;;;;;4.03;2.50;;;8.90;90.50;;;;;;4935321;28;20090;-82
2021/09/04 05:07:23;;;;;;;2.88;2.17;;;8.80;90.30;;;;;;4935494;29;20470;-82
2021/09/04 05:09:49;;;;;;;3.00;2.70;;;8.80;90.40;;;;;;4939426;29;20028;-81
2021/09/04 05:12:14;;;;;;;2.67;2.47;;;8.80;90.60;;;;;;4930903;29;20028;-82
2021/09/04 05:14:40;;;;;;;3.17;2.38;;;8.80;90.60;;;;;;4931890;29;20102;-81
2021/09/04 05:17:06;;;;;;;5.75;3.28;;;8.90;90.70;;;;;;4933294;29;20110;-81
2021/09/04 05:19:31;;;;;;;4.60;3.10;;;8.90;90.90;;;;;;4937713;28;20034;-81
2021/09/04 05:21:57;;;;;;;4.03;3.05;;;8.90;90.90;;;;;;4934665;28;20042;-82
2021/09/04 05:24:23;;;;;;;5.35;2.60;;;8.90;90.90;;;;;;4933489;29;20023;-81
2021/09/04 05:26:49;;;;;;;4.32;3.92;;;9.00;90.90;;;;;;4930809;29;20386;-81
2021/09/04 05:29:15;;;;;;;3.63;2.55;;;9.00;90.80;;;;;;4936696;29;20035;-82
2021/09/04 05:31:41;;;;;;;4.90;3.15;;;9.00;90.90;;;;;;4933924;29;20044;-82
2021/09/04 05:34:06;;;;;;;4.25;2.70;;;9.00;91.20;;;;;;4936543;28;20058;-82
2021/09/04 05:36:32;;;;;;;4.13;3.10;;;9.00;91.60;;;;;;4933162;29;20118;-82
2021/09/04 05:38:58;;;;;;;5.43;2.80;;;9.10;91.60;;;;;;4934965;29;20452;-82
2021/09/04 05:41:24;;;;;;;3.20;2.38;;;9.10;91.70;;;;;;4930989;28;20135;-81
2021/09/04 05:43:49;;;;;;;5.13;2.88;;;9.10;91.70;;;;;;4934203;29;20026;-81
2021/09/04 05:46:15;;;;;;;3.03;2.70;;;9.20;92.00;;;;;;4945225;28;21538;-82
2021/09/04 05:48:41;;;;;;;3.20;2.53;;;9.20;91.90;;;;;;4934436;29;20134;-82
2021/09/04 05:51:07;;;;;;;3.47;2.70;;;9.30;91.80;;;;;;4931280;29;20106;-82
2021/09/04 05:53:32;;;;;;;5.05;3.40;;;9.30;92.30;;;;;;4937818;29;20070;-82
2021/09/04 05:55:58;;;;;;;5.25;3.40;;;9.40;92.60;;;;;;4931627;29;21811;-82
2021/09/04 05:58:24;;;;;;;5.75;3.60;;;9.50;92.40;;;;;;4931667;29;20035;-82
2021/09/04 06:00:53;;;;;;;6.50;4.07;;;9.50;92.70;;;;;;4932869;29;20058;-82
2021/09/04 06:03:18;;;;;;;7.75;3.97;;;9.70;93.20;;;;;;4929788;29;20607;-82
2021/09/04 06:05:44;;;;;;;7.70;4.22;;;9.70;93.70;;;;;;4932251;29;20028;-82
2021/09/04 06:08:10;;;;;;;10.02;4.93;;;9.80;93.60;;;;;;4933720;29;20034;-82
2021/09/04 06:10:36;;;;;;;8.55;4.40;;;9.80;93.70;;;;;;4932744;28;20070;-82
2021/09/04 06:13:02;;;;;;;9.05;5.53;;;9.90;94.10;;;;;;4932223;29;20036;-82
2021/09/04 06:15:28;;;;;;;6.75;4.65;;;10.00;94.10;;;;;;4934558;29;20032;-82
2021/09/04 06:17:53;;;;;;;10.95;5.22;;;10.10;94.40;;;;;;4932289;28;20051;-82
2021/09/04 06:20:19;;;;;;;7.45;4.85;;;10.20;94.50;;;;;;4929819;29;20052;-82
2021/09/04 06:22:45;;;;;;;10.45;5.35;;;10.30;94.60;;;;;;4931998;28;20046;-82
2021/09/04 06:25:11;;;;;;;8.30;4.85;;;10.30;94.90;;;;;;4932823;29;20030;-82
2021/09/04 06:27:37;;;;;;;8.13;4.93;;;10.50;95.00;;;;;;4931448;29;20087;-82
2021/09/04 06:30:05;;;;;;;7.25;5.10;;;10.50;94.70;;;;;;4931587;29;20118;-82
2021/09/04 06:32:31;;;;;;;7.57;4.63;;;10.60;94.40;;;;;;4929089;29;20058;-82
2021/09/04 06:34:57;;;;;;;6.82;4.68;;;10.70;94.60;;;;;;4927056;29;21034;-82
2021/09/04 06:37:22;;;;;;;6.60;4.60;;;10.80;94.80;;;;;;4932305;29;20443;-82
2021/09/04 06:39:48;;;;;;;6.78;4.75;;;10.90;94.40;;;;;;4933269;29;20107;-82
2021/09/04 06:42:14;;;;;;;6.28;4.53;;;10.90;94.90;;;;;;4930143;28;20024;-82
2021/09/04 06:44:40;;;;;;;8.70;4.90;;;11.00;95.30;;;;;;4931118;28;20032;-82
2021/09/04 06:47:06;;;;;;;5.68;4.68;;;11.10;94.90;;;;;;4937310;28;20481;-82
2021/09/04 06:49:31;;;;;;;7.15;5.15;;;11.20;95.00;;;;;;4931931;29;20037;-82
2021/09/04 06:51:57;;;;;;;7.50;4.88;;;11.30;95.10;;;;;;4935305;28;20095;-82
2021/09/04 06:54:26;;;;;;;7.40;4.70;;;11.40;94.70;;;;;;4928255;29;20035;-82
2021/09/04 06:56:51;;;;;;;;;;;11.50;94.90;;;;;;4930284;29;20488;-82
2021/09/04 06:59:17;;;;;;;6.18;4.55;;;11.60;94.90;;;;;;4934811;29;19918;-81
2021/09/04 07:01:43;;;;;;;7.60;5.15;;;11.70;94.50;;;;;;4934755;29;20044;-82
2021/09/04 07:04:09;;;;;;;7.93;5.28;;;11.70;95.00;;;;;;4936009;29;20028;-82
2021/09/04 07:06:35;;;;;;;7.75;5.15;;;11.80;94.70;;;;;;4937375;29;20023;-81
2021/09/04 07:09:01;;;;;;;10.05;5.65;;;11.90;94.70;;;;;;4941139;28;20040;-82
2021/09/04 07:11:27;;;;;;;10.63;5.55;;;12.00;95.00;;;;;;4937295;29;20032;-81
2021/09/04 07:13:53;;;;;;;8.35;5.63;;;12.10;95.00;;;;;;4936859;28;20036;-81
2021/09/04 07:16:18;;;;;;;9.82;6.50;;;12.20;95.40;;;;;;4938945;28;20040;-81
2021/09/04 07:18:44;;;;;;;11.52;6.85;;;12.30;95.10;;;;;;4935021;29;20030;-82
2021/09/04 07:21:10;;;;;;;9.90;6.95;;;12.40;94.80;;;;;;4940492;29;20028;-81
2021/09/04 07:23:36;;;;;;;12.07;6.75;;;12.60;95.40;;;;;;4938295;28;20038;-82
2021/09/04 07:26:02;;;;;;;10.70;7.10;;;12.80;94.80;;;;;;4938330;29;20055;-82
2021/09/04 07:28:28;;;;;;;11.73;7.03;;;13.00;94.70;;;;;;4939380;29;20035;-82
2021/09/04 07:30:53;;;;;;;13.00;8.15;;;13.10;94.30;;;;;;4937933;28;20047;-82
2021/09/04 07:33:19;;;;;;;14.13;9.35;;;13.30;94.50;;;;;;4938309;29;20091;-82
2021/09/04 07:35:45;;;;;;;16.33;9.70;;;13.30;93.80;;;;;;4934000;29;20036;-81
2021/09/04 07:38:11;;;;;;;18.70;11.63;;;13.50;94.40;;;;;;4938051;29;20488;-81
2021/09/04 07:40:37;;;;;;;18.38;11.02;;;13.70;93.90;;;;;;4937674;29;20027;-82
2021/09/04 07:43:07;;;;;;;16.63;9.75;;;13.80;93.50;;;;;;4935107;29;20573;-82
2021/09/04 07:45:37;;;;;;;16.17;9.95;;;14.00;93.60;;;;;;4934400;29;20031;-82
2021/09/04 07:48:04;;;;;;;14.52;9.02;;;14.10;93.30;;;;;;4937841;29;20027;-82
2021/09/04 07:50:30;;;;;;;13.88;8.73;;;14.30;92.90;;;;;;4937541;28;20027;-82
2021/09/04 07:52:55;;;;;;;13.93;9.18;;;14.40;92.60;;;;;;4936306;29;20031;-80
2021/09/04 07:55:21;;;;;;;15.32;9.90;;;14.50;92.40;;;;;;4938229;29;20044;-81
2021/09/04 07:57:47;;;;;;;13.00;9.07;;;14.70;93.00;;;;;;4938576;28;20103;-81
2021/09/04 08:00:14;;;;;;;14.25;8.63;;;14.80;92.30;;;;;;4940723;28;20581;-81
2021/09/04 08:02:39;;;;;;;14.77;8.82;;;15.00;91.90;;;;;;4937760;29;20532;-81
2021/09/04 08:05:06;;;;;;;13.27;8.57;;;15.00;91.70;;;;;;4936772;29;20239;-81
2021/09/04 08:07:32;;;;;;;17.27;8.93;;;15.20;91.50;;;;;;4932955;29;20043;-81
2021/09/04 08:09:57;;;;;;;14.85;9.57;;;15.40;92.30;;;;;;4930457;29;20086;-81
2021/09/04 08:12:23;;;;;;;15.80;8.75;;;15.60;92.00;;;;;;4928538;28;21030;-82
2021/09/04 08:14:49;;;;;;;15.20;8.60;;;15.70;90.70;;;;;;4932835;29;20038;-81
2021/09/04 08:17:15;;;;;;;13.00;8.40;;;15.80;90.90;;;;;;4955293;23;20827;-69
2021/09/04 08:19:40;;;;;;;13.45;8.57;;;16.00;91.20;;;;;;4921172;29;20042;-70
2021/09/04 08:22:06;;;;;;;15.00;8.77;;;16.10;90.50;;;;;;4929399;29;20024;-70
2021/09/04 08:24:33;;;;;;;15.20;8.20;;;16.20;90.20;;;;;;4925654;29;20362;-70
2021/09/04 08:26:59;;;;;;;14.65;8.80;;;16.40;89.90;;;;;;4919801;29;20710;-70
2021/09/04 08:29:25;;;;;;;15.30;8.60;;;16.50;90.30;;;;;;4930240;29;20114;-69
2021/09/04 08:31:51;;;;;;;14.52;8.60;;;16.60;89.30;;;;;;4928073;29;20437;-70
2021/09/04 08:34:17;;;;;;;14.20;8.23;;;16.80;90.50;;;;;;4931989;28;20023;-71
2021/09/04 08:36:42;;;;;;;12.63;8.85;;;16.90;89.00;;;;;;4932138;29;20130;-71
2021/09/04 08:39:08;;;;;;;14.85;9.20;;;17.10;87.60;;;;;;4929958;28;20091;-71
2021/09/04 08:41:36;;;;;;;11.32;7.88;;;17.20;88.20;;;;;;4936947;29;20346;-72
2021/09/04 08:44:02;;;;;;;14.93;8.25;;;17.20;86.40;;;;;;4926753;29;20038;-71
2021/09/04 08:46:36;;;;;;;15.20;7.70;;;17.40;88.50;;;;;;4926847;29;20028;-69
2021/09/04 08:49:04;;;;;;;11.30;7.80;;;17.50;84.50;;;;;;4922982;29;20067;-70
2021/09/04 08:51:30;;;;;;;13.73;7.90;;;17.60;87.80;;;;;;4924501;29;20039;-71
2021/09/04 08:53:56;;;;;;;11.32;7.70;;;17.70;85.00;;;;;;4925634;29;20039;-72
2021/09/04 08:56:22;;;;;;;12.10;7.50;;;17.80;84.50;;;;;;4930192;29;20032;-70
2021/09/04 08:58:48;;;;;;;11.20;8.45;;;17.90;82.70;;;;;;4928054;28;20107;-70
2021/09/04 09:01:19;;;;;;;12.70;8.15;;;18.00;83.40;;;;;;4923331;29;20726;-71
2021/09/04 09:03:45;;;;;;;10.65;7.47;;;18.20;83.60;;;;;;4927131;29;20024;-71
2021/09/04 09:06:11;;;;;;;11.63;7.47;;;18.20;81.90;;;;;;4926536;29;20055;-71
2021/09/04 09:08:43;;;;;;;12.48;7.50;;;18.30;81.60;;;;;;4933224;29;20031;-72
2021/09/04 09:11:09;;;;;;;12.55;7.40;;;18.50;80.40;;;;;;4929586;29;20115;-72
2021/09/04 09:13:52;;;;;;;13.68;7.90;;;18.50;79.40;;;;;;4927928;28;20127;-71
2021/09/04 09:16:20;;;;;;;10.77;6.57;;;18.60;81.70;;;;;;4925366;29;20058;-71
2021/09/04 09:19:00;;;;;;;26.60;9.63;;;18.80;78.70;;;;;;4926377;29;20071;-71
2021/09/04 09:21:33;;;;;;;14.68;7.80;;;18.80;78.60;;;;;;4923449;29;20036;-70
2021/09/04 09:24:15;;;;;;;12.32;7.50;;;18.90;78.10;;;;;;4930488;29;20016;-71
2021/09/04 09:26:50;;;;;;;10.30;7.00;;;19.00;76.70;;;;;;4926075;29;20494;-70
2021/09/04 09:29:24;;;;;;;12.90;8.13;;;19.10;77.30;;;;;;4927801;29;20039;-70
2021/09/04 09:32:09;;;;;;;11.65;6.95;;;19.20;77.50;;;;;;4931322;28;20672;-70
2021/09/04 09:34:39;;;;;;;14.70;8.63;;;19.20;76.00;;;;;;4930360;29;20023;-69
2021/09/04 09:37:06;;;;;;;12.00;6.85;;;19.30;76.00;;;;;;4928209;28;20043;-69
2021/09/04 09:39:37;;;;;;;11.65;7.03;;;19.30;76.20;;;;;;4923216;29;20031;-70
2021/09/04 09:42:08;;;;;;;12.80;7.40;;;19.40;76.00;;;;;;4927702;29;20035;-70
2021/09/04 09:44:36;;;;;;;12.98;7.25;;;19.50;76.10;;;;;;4934212;29;20034;-70
2021/09/04 09:47:08;;;;;;;;;;;19.60;76.00;;;;;;4922971;29;20031;-70
2021/09/04 09:49:37;;;;;;;10.25;6.13;;;19.70;75.40;;;;;;4924507;29;19918;-69
2021/09/04 09:52:09;;;;;;;11.20;7.00;;;19.80;75.00;;;;;;4921420;28;20025;-68
2021/09/04 09:54:36;;;;;;;10.50;7.03;;;19.80;74.00;;;;;;4936666;29;20047;-68
2021/09/04 09:57:10;;;;;;;9.73;6.38;;;19.90;73.40;;;;;;4931621;29;20140;-68
2021/09/04 09:59:37;;;;;;;14.60;7.90;;;19.90;70.10;;;;;;4925456;28;20082;-68
2021/09/04 10:02:08;;;;;;;15.05;9.63;;;19.90;73.30;;;;;;4918590;29;20036;-68
2021/09/04 10:04:37;;;;;;;10.93;7.28;;;20.00;72.60;;;;;;4921866;29;20035;-68
2021/09/04 10:07:05;;;;;;;23.48;7.78;;;20.10;73.60;;;;;;4926042;29;20103;-69
2021/09/04 10:09:31;;;;;;;;;;;20.20;69.40;;;;;;4917374;29;20028;-69
2021/09/04 10:11:57;;;;;;;11.32;7.15;;;20.20;71.00;;;;;;4919868;29;19966;-69
2021/09/04 10:14:24;;;;;;;11.90;6.82;;;20.30;72.50;;;;;;4923511;29;20057;-69
2021/09/04 10:16:52;;;;;;;12.32;6.55;;;20.30;70.00;;;;;;4922104;29;20035;-71
2021/09/04 10:19:22;;;;;;;10.73;6.30;;;20.40;68.90;;;;;;4919585;29;20046;-69
2021/09/04 10:21:52;;;;;;;10.15;5.80;;;20.40;68.40;;;;;;4922652;29;20063;-69
2021/09/04 10:24:18;;;;;;;10.80;6.53;;;20.50;65.50;;;;;;4926420;29;20027;-69
2021/09/04 10:26:43;;;;;;;5.28;4.18;;;20.60;67.00;;;;;;4918829;29;20035;-69
2021/09/04 10:29:12;;;;;;;8.60;5.68;;;20.70;66.20;;;;;;4928679;28;20036;-69
2021/09/04 10:31:59;;;;;;;18.98;6.35;;;20.70;68.20;;;;;;4918768;29;20060;-69
2021/09/04 10:34:30;;;;;;;7.18;4.68;;;20.60;66.20;;;;;;4916722;29;20564;-68
2021/09/04 10:37:12;;;;;;;7.75;4.90;;;20.70;64.00;;;;;;4921813;29;22542;-68
2021/09/04 10:39:52;;;;;;;8.20;4.75;;;20.80;64.40;;;;;;4932792;28;20452;-68
2021/09/04 10:42:22;;;;;;;17.25;5.10;;;20.80;63.30;;;;;;4937771;28;20540;-68
2021/09/04 10:44:52;;;;;;;5.32;3.47;;;20.90;62.70;;;;;;4914753;29;20028;-67
2021/09/04 10:47:18;;;;;;;5.28;3.97;;;20.90;64.20;;;;;;4919530;28;20514;-68
2021/09/04 10:49:48;;;;;;;6.03;4.10;;;21.00;64.40;;;;;;4923104;29;20039;-67
2021/09/04 10:52:14;;;;;;;4.78;3.67;;;21.00;62.50;;;;;;4925097;29;20514;-68
2021/09/04 10:54:58;;;;;;;6.80;3.78;;;21.10;63.30;;;;;;4930105;29;20059;-68
2021/09/04 10:57:25;;;;;;;7.30;4.05;;;21.00;61.90;;;;;;4907384;28;20493;-67
2021/09/04 10:59:56;;;;;;;6.95;3.70;;;21.00;61.60;;;;;;4918717;29;20063;-68
2021/09/04 11:02:22;;;;;;;4.78;3.10;;;21.10;61.50;;;;;;4920931;28;20028;-68
2021/09/04 11:04:57;;;;;;;4.95;3.10;;;21.20;60.20;;;;;;4922309;29;20032;-68
2021/09/04 11:07:45;;;;;;;4.60;3.50;;;21.20;58.40;;;;;;4925236;29;20126;-68
2021/09/04 11:10:24;;;;;;;5.78;3.33;;;21.10;58.10;;;;;;4926185;29;20024;-68
2021/09/04 11:13:11;;;;;;;12.57;6.18;;;21.20;57.90;;;;;;4921152;29;20349;-68
2021/09/04 11:15:38;;;;;;;6.85;3.50;;;21.20;61.10;;;;;;4925034;29;20032;-68
2021/09/04 11:18:04;;;;;;;5.13;3.40;;;21.20;61.20;;;;;;4923044;29;20052;-68
2021/09/04 11:20:30;;;;;;;5.63;3.70;;;21.30;57.90;;;;;;4918075;29;20034;-69
2021/09/04 11:22:56;;;;;;;5.22;3.47;;;21.30;58.60;;;;;;4918155;29;20433;-69
2021/09/04 11:25:23;;;;;;;4.85;3.67;;;21.30;60.40;;;;;;4915216;29;20028;-68
2021/09/04 11:27:49;;;;;;;4.82;3.40;;;21.30;60.50;;;;;;4926739;29;20024;-68
2021/09/04 11:30:16;;;;;;;3.97;3.22;;;21.40;57.40;;;;;;4923212;29;20031;-68
2021/09/04 11:32:43;;;;;;;4.32;3.17;;;21.40;58.40;;;;;;4918946;29;20135;-68
2021/09/04 11:35:09;;;;;;;3.80;2.70;;;21.50;57.70;;;;;;4922637;29;20107;-67
2021/09/04 11:37:37;;;;;;;5.90;3.22;;;21.40;57.60;;;;;;4923396;29;20031;-68
2021/09/04 11:40:18;;;;;;;3.85;2.92;;;21.60;57.90;;;;;;4927630;29;20043;-68
2021/09/04 11:42:45;;;;;;;4.95;2.92;;;21.60;56.20;;;;;;4925371;29;20035;-68
2021/09/04 11:45:14;;;;;;;4.25;2.92;;;21.60;57.30;;;;;;4927267;29;20571;-68
2021/09/04 11:47:43;;;;;;;3.88;2.60;;;21.80;57.80;;;;;;4927433;29;20086;-68
2021/09/04 11:50:18;;;;;;;3.55;3.20;;;21.70;53.00;;;;;;4933395;29;20034;-68
2021/09/04 11:52:44;;;;;;;3.97;2.97;;;21.60;54.60;;;;;;4919935;29;20035;-68
2021/09/04 11:55:32;;;;;;;2.85;2.47;;;21.60;53.20;;;;;;4925688;29;20042;-68
2021/09/04 11:58:00;;;;;;;3.17;2.63;;;21.70;54.70;;;;;;4923048;29;20035;-67
2021/09/04 12:00:30;;;;;;;4.25;2.90;;;21.70;57.10;;;;;;4928198;28;20634;-68
2021/09/04 12:03:07;;;;;;;3.53;2.85;;;21.70;56.20;;;;;;4929483;28;20024;-68
2021/09/04 12:05:54;;;;;;;4.43;2.60;;;21.70;54.20;;;;;;4920696;29;20028;-67
2021/09/04 12:08:27;;;;;;;3.35;2.50;;;21.70;50.80;;;;;;4926247;29;20027;-68
2021/09/04 12:11:01;;;;;;;4.78;2.85;;;21.60;52.70;;;;;;4925079;29;20063;-68
2021/09/04 12:13:28;;;;;;;3.75;2.40;;;21.60;51.80;;;;;;4923392;29;20528;-67
2021/09/04 12:15:55;;;;;;;4.55;2.60;;;21.60;51.40;;;;;;4924271;29;20032;-68
2021/09/04 12:18:47;;;;;;;4.27;2.70;;;21.60;52.10;;;;;;4925224;29;20054;-68
2021/09/04 12:21:30;;;;;;;3.42;2.80;;;21.70;53.80;;;;;;4931366;28;20303;-68
2021/09/04 12:24:03;;;;;;;3.17;2.65;;;21.70;52.50;;;;;;4925060;29;20075;-68
2021/09/04 12:26:29;;;;;;;2.40;2.17;;;21.70;52.10;;;;;;4921504;29;20067;-68
2021/09/04 12:29:11;;;;;;;3.08;2.58;;;21.80;53.40;;;;;;4930917;29;20335;-68
2021/09/04 12:31:45;;;;;;;6.00;2.70;;;21.70;51.20;;;;;;4914880;28;20055;-68
2021/09/04 12:34:22;;;;;;;4.32;2.95;;;21.70;49.50;;;;;;4924360;29;20044;-68
2021/09/04 12:36:48;;;;;;;5.00;3.25;;;21.70;56.30;;;;;;4925063;29;20088;-67
2021/09/04 12:39:21;;;;;;;3.78;2.67;;;21.90;54.70;;;;;;4929010;29;20340;-68
2021/09/04 12:41:49;;;;;;;4.57;3.10;;;21.90;50.80;;;;;;4924262;29;20036;-68
2021/09/04 12:44:16;;;;;;;4.17;3.00;;;21.80;53.50;;;;;;4914317;29;20064;-67
2021/09/04 12:47:02;;;;;;;3.75;2.65;;;21.80;51.70;;;;;;4918230;29;20288;-74
2021/09/04 12:49:33;;;;;;;3.67;2.42;;;21.80;55.40;;;;;;4926944;29;20064;-73